Time;durP1;ratioP1;P1;durP2;ratioP2;P2;SDS_P1;SDS_P2;PMS_P1;PMS_P2;Temp;Humidity;BMP_temperature;BMP_pressure;BME280_temperature;BME280_humidity;BME280_pressure;Samples;Min_cycle;Max_cycle;Signal;HPM_P1;HPM_P2
2021/12/26 00:01:06;;;;;;;6.23;3.80;;;;;;;-9.47;100.00;100721.75;5031885;28;20547;-86
2021/12/26 00:03:35;;;;;;;8.83;3.97;;;;;;;-9.44;100.00;100727.00;5035485;28;20396;-87
2021/12/26 00:06:11;;;;;;;10.07;4.93;;;;;;;-9.44;100.00;100728.69;5011522;28;20506;-87
2021/12/26 00:08:43;;;;;;;11.93;5.93;;;;;;;-9.47;100.00;100735.28;5025593;28;20057;-87
2021/12/26 00:11:10;;;;;;;7.70;3.73;;;;;;;-9.52;100.00;100734.06;5014625;28;20048;-86
2021/12/26 00:13:38;;;;;;;4.30;3.63;;;;;;;-9.55;100.00;100732.97;5034411;28;20152;-86
2021/12/26 00:16:07;;;;;;;8.10;4.90;;;;;;;-9.57;100.00;100737.03;5034281;28;20037;-87
2021/12/26 00:18:36;;;;;;;11.37;4.63;;;;;;;-9.57;100.00;100735.38;5024765;28;20060;-85
2021/12/26 00:21:04;;;;;;;10.40;4.90;;;;;;;-9.60;100.00;100735.16;5010439;28;20037;-85
2021/12/26 00:23:31;;;;;;;5.33;3.33;;;;;;;-9.62;100.00;100725.69;5044889;28;20037;-86
2021/12/26 00:25:58;;;;;;;7.60;3.67;;;;;;;-9.64;100.00;100731.53;5033467;28;20048;-87
2021/12/26 00:28:29;;;;;;;7.07;3.67;;;;;;;-9.64;100.00;100718.84;5052844;28;20160;-86
2021/12/26 00:30:56;;;;;;;9.07;4.53;;;;;;;-9.66;100.00;100716.97;5012165;28;20056;-86
2021/12/26 00:33:23;;;;;;;6.10;4.30;;;;;;;-9.64;100.00;100711.25;5030187;28;20045;-86
2021/12/26 00:35:49;;;;;;;8.87;4.60;;;;;;;-9.61;100.00;100712.25;5044990;28;21839;-87
2021/12/26 00:38:17;;;;;;;5.73;4.60;;;;;;;-9.62;100.00;100718.09;5031505;28;20323;-86
2021/12/26 00:40:45;;;;;;;11.70;6.23;;;;;;;-9.62;100.00;100713.88;5043726;28;20044;-86
2021/12/26 00:43:12;;;;;;;9.73;5.47;;;;;;;-9.61;100.00;100713.13;5030558;28;20830;-86
2021/12/26 00:45:40;;;;;;;8.53;4.83;;;;;;;-9.61;100.00;100708.06;5047885;28;20143;-87
2021/12/26 00:48:10;;;;;;;7.50;4.60;;;;;;;-9.58;100.00;100704.88;5027036;28;20045;-87
2021/12/26 00:50:40;;;;;;;7.27;4.07;;;;;;;-9.51;100.00;100705.41;5035746;28;20049;-87
2021/12/26 00:53:07;;;;;;;13.40;4.40;;;;;;;-9.49;100.00;100706.44;5043482;28;20076;-86
2021/12/26 00:55:34;;;;;;;5.27;4.77;;;;;;;-9.49;100.00;100706.44;5033579;28;20537;-86
2021/12/26 00:58:02;;;;;;;6.77;5.53;;;;;;;-9.51;100.00;100699.47;5019505;28;20053;-87
2021/12/26 01:00:32;;;;;;;7.67;4.53;;;;;;;-9.51;100.00;100702.88;5042514;28;21378;-87
2021/12/26 01:03:03;;;;;;;8.90;4.63;;;;;;;-9.47;100.00;100698.94;5034570;28;20041;-86
2021/12/26 01:05:34;;;;;;;6.07;4.53;;;;;;;-9.51;100.00;100697.81;5026065;28;20049;-87
2021/12/26 01:08:03;;;;;;;10.60;6.53;;;;;;;-9.51;100.00;100694.41;5033638;28;20037;-86
2021/12/26 01:10:45;;;;;;;6.63;5.47;;;;;;;-9.52;100.00;100700.25;5031363;28;20078;-86
2021/12/26 01:13:20;;;;;;;7.70;3.80;;;;;;;-9.56;100.00;100705.88;5032578;28;20049;-87
2021/12/26 01:15:52;;;;;;;8.53;5.20;;;;;;;-9.54;100.00;100706.84;5032409;28;20740;-86
2021/12/26 01:18:19;;;;;;;10.47;4.43;;;;;;;-9.57;100.00;100707.50;5024514;28;20068;-86
2021/12/26 01:20:51;;;;;;;5.93;4.40;;;;;;;-9.59;100.00;100705.63;5012569;28;20400;-86
2021/12/26 01:23:22;;;;;;;9.53;5.83;;;;;;;-9.59;100.00;100703.09;5024632;28;23182;-87
2021/12/26 01:25:49;;;;;;;6.43;4.07;;;;;;;-9.60;100.00;100701.34;5030799;28;20083;-86
2021/12/26 01:28:17;;;;;;;6.67;5.10;;;;;;;-9.64;100.00;100701.13;5017226;28;20052;-87
2021/12/26 01:30:45;;;;;;;9.27;4.40;;;;;;;-9.65;100.00;100698.47;5027255;28;20610;-87
2021/12/26 01:33:16;;;;;;;8.40;4.53;;;;;;;-9.69;100.00;100704.09;5028172;28;20041;-86
2021/12/26 01:35:43;;;;;;;7.43;4.70;;;;;;;-9.73;100.00;100700.44;5029516;28;20073;-87
2021/12/26 01:38:13;;;;;;;5.80;4.13;;;;;;;-9.76;100.00;100696.81;5026140;28;20052;-86
2021/12/26 01:40:50;;;;;;;9.00;5.10;;;;;;;-9.81;100.00;100692.28;5016939;28;20053;-86
2021/12/26 01:43:25;;;;;;;7.47;4.57;;;;;;;-9.82;100.00;100697.25;5014326;28;20393;-86
2021/12/26 01:45:52;;;;;;;7.17;4.47;;;;;;;-9.84;100.00;100701.31;5016615;28;20053;-87
2021/12/26 01:48:20;;;;;;;10.43;5.33;;;;;;;-9.86;100.00;100690.19;5022106;28;20127;-87
2021/12/26 01:50:51;;;;;;;6.80;3.90;;;;;;;-9.85;100.00;100697.91;5013146;28;20113;-86
2021/12/26 01:53:20;;;;;;;8.47;4.83;;;;;;;-9.87;100.00;100698.56;5006993;28;20044;-87
2021/12/26 01:55:47;;;;;;;6.27;4.63;;;;;;;-9.92;100.00;100700.78;5030250;28;20049;-87
2021/12/26 01:58:25;;;;;;;7.00;5.63;;;;;;;-9.94;100.00;100704.81;5012147;28;20127;-88
2021/12/26 02:01:01;;;;;;;5.40;4.07;;;;;;;-9.98;100.00;100701.19;5022424;28;20064;-87
2021/12/26 02:03:28;;;;;;;8.13;4.70;;;;;;;-10.02;100.00;100704.25;5031235;28;20615;-86
2021/12/26 02:05:55;;;;;;;8.27;4.53;;;;;;;-9.99;100.00;100701.06;5031574;28;20128;-86
2021/12/26 02:08:23;;;;;;;11.20;5.60;;;;;;;-9.97;100.00;100704.63;5012104;28;20045;-87
2021/12/26 02:10:51;;;;;;;6.27;4.30;;;;;;;-10.00;100.00;100697.66;5012261;28;20136;-87
2021/12/26 02:13:18;;;;;;;9.00;4.77;;;;;;;-10.05;100.00;100698.97;5021310;28;20072;-87
2021/12/26 02:15:44;;;;;;;8.77;5.07;;;;;;;-10.08;100.00;100698.72;5039834;28;20087;-86
2021/12/26 02:18:13;;;;;;;7.00;4.27;;;;;;;-10.08;100.00;100697.88;5023134;28;20435;-86
2021/12/26 02:20:59;;;;;;;9.80;4.43;;;;;;;-10.07;100.00;100695.44;5027094;28;20061;-87
2021/12/26 02:23:28;;;;;;;6.03;4.20;;;;;;;-10.07;100.00;100686.97;5023945;28;20059;-86
2021/12/26 02:28:48;;;;;;;7.30;6.35;;;;;;;-10.11;100.00;100693.44;5032396;28;20250;-87
2021/12/26 02:31:18;;;;;;;6.13;4.90;;;;;;;-10.10;100.00;100691.78;5011043;28;20073;-86
2021/12/26 02:33:45;;;;;;;7.27;4.57;;;;;;;-10.09;100.00;100686.84;5016165;28;21212;-87
2021/12/26 02:36:12;;;;;;;5.23;4.70;;;;;;;-10.08;100.00;100687.72;5036452;28;20064;-85
2021/12/26 02:38:38;;;;;;;7.87;5.53;;;;;;;-10.06;100.00;100676.94;5053164;28;20041;-86
2021/12/26 02:41:07;;;;;;;7.27;4.77;;;;;;;-10.10;100.00;100686.72;5015255;28;20053;-85
2021/12/26 02:43:34;;;;;;;8.03;5.37;;;;;;;-10.16;100.00;100682.97;5054575;28;20533;-86
2021/12/26 02:46:06;;;;;;;8.17;4.53;;;;;;;-10.16;100.00;100682.09;5031154;28;20072;-85
2021/12/26 02:48:33;;;;;;;9.00;4.83;;;;;;;-10.16;100.00;100677.03;5045991;28;20103;-87
2021/12/26 02:51:00;;;;;;;10.50;6.10;;;;;;;-10.20;100.00;100678.44;5021136;28;20042;-87
2021/12/26 02:53:28;;;;;;;8.73;5.40;;;;;;;-10.24;100.00;100676.47;5039626;28;20045;-86
2021/12/26 02:55:59;;;;;;;10.43;4.83;;;;;;;-10.27;100.00;100675.34;5029980;28;20121;-86
2021/12/26 02:58:26;;;;;;;6.27;5.03;;;;;;;-10.30;100.00;100673.47;5010020;28;20179;-86
2021/12/26 03:01:16;;;;;;;6.37;4.67;;;;;;;-10.27;100.00;100668.66;5045107;28;20388;-87
2021/12/26 03:03:43;;;;;;;6.53;5.10;;;;;;;-10.25;100.00;100662.03;5008178;28;20052;-86
2021/12/26 03:06:18;;;;;;;7.50;4.70;;;;;;;-10.24;100.00;100666.34;5026759;28;20061;-87
2021/12/26 03:08:46;;;;;;;13.00;6.30;;;;;;;-10.21;100.00;100663.16;5042639;28;20052;-87
2021/12/26 03:11:13;;;;;;;6.00;4.83;;;;;;;-10.12;100.00;100668.03;5037460;28;20056;-86
2021/12/26 03:13:39;;;;;;;10.80;5.07;;;;;;;-10.15;100.00;100667.03;5026576;28;20045;-86
2021/12/26 03:16:06;;;;;;;7.47;5.33;;;;;;;-10.11;100.00;100665.59;5039236;28;20037;-87
2021/12/26 03:18:33;;;;;;;8.97;6.53;;;;;;;-10.09;100.00;100666.56;5042382;28;20041;-86
2021/12/26 03:20:59;;;;;;;9.13;6.60;;;;;;;-10.08;100.00;100677.59;5012205;28;21395;-86
2021/12/26 03:23:28;;;;;;;5.63;4.60;;;;;;;-10.11;100.00;100667.25;5026283;28;20042;-87
2021/12/26 03:26:00;;;;;;;7.23;4.87;;;;;;;-10.14;100.00;100667.91;5030523;28;20180;-87
2021/12/26 03:28:28;;;;;;;8.23;5.40;;;;;;;-10.22;100.00;100668.97;5004761;28;20109;-87
2021/12/26 03:30:56;;;;;;;8.90;5.40;;;;;;;-10.28;100.00;100669.41;5025184;28;20048;-87
2021/12/26 03:33:23;;;;;;;8.53;5.03;;;;;;;-10.29;100.00;100666.78;5047340;28;20072;-87
2021/12/26 03:35:50;;;;;;;9.67;4.97;;;;;;;-10.35;100.00;100669.75;5025494;28;20068;-87
2021/12/26 03:38:19;;;;;;;9.03;5.60;;;;;;;-10.41;100.00;100666.78;5020044;28;20462;-86
2021/12/26 03:40:47;;;;;;;10.07;5.57;;;;;;;-10.45;100.00;100670.72;5045396;28;20045;-86
2021/12/26 03:43:14;;;;;;;6.87;5.17;;;;;;;-10.48;100.00;100652.75;5050425;28;20040;-86
2021/12/26 03:45:48;;;;;;;13.47;5.10;;;;;;;-10.42;100.00;100662.47;5031211;28;20048;-86
2021/12/26 03:48:16;;;;;;;11.48;5.53;;;;;;;-10.43;100.00;100661.56;5017401;28;20131;-86
2021/12/26 03:50:43;;;;;;;11.53;6.17;;;;;;;-10.37;100.00;100659.50;5035828;28;20186;-86
2021/12/26 03:53:11;;;;;;;8.37;4.93;;;;;;;-10.32;100.00;100658.16;5013498;28;20060;-87
2021/12/26 03:55:39;;;;;;;9.97;5.30;;;;;;;-10.29;100.00;100656.66;5020178;28;20159;-87
2021/12/26 03:58:09;;;;;;;10.37;5.63;;;;;;;-10.29;100.00;100657.53;5029337;28;20672;-87
2021/12/26 04:00:37;;;;;;;7.37;5.13;;;;;;;-10.32;100.00;100658.16;5019658;28;20049;-87
2021/12/26 04:03:04;;;;;;;9.57;5.03;;;;;;;-10.32;100.00;100648.06;5017170;28;20079;-87
2021/12/26 04:05:31;;;;;;;7.63;4.43;;;;;;;-10.28;100.00;100643.19;5024851;28;20051;-87
2021/12/26 04:07:57;;;;;;;11.00;5.60;;;;;;;-10.29;100.00;100642.34;5017993;28;20045;-87
2021/12/26 04:10:24;;;;;;;11.93;5.90;;;;;;;-10.32;100.00;100639.59;5045599;28;21207;-87
2021/12/26 04:12:53;;;;;;;6.80;4.57;;;;;;;-10.37;100.00;100630.81;5033517;28;20400;-87
2021/12/26 04:15:24;;;;;;;12.27;7.07;;;;;;;-10.42;100.00;100630.44;5031245;28;20431;-86
2021/12/26 04:17:57;;;;;;;9.80;4.93;;;;;;;-10.40;100.00;100626.41;5041651;28;20049;-87
2021/12/26 04:20:25;;;;;;;9.63;5.50;;;;;;;-10.42;100.00;100634.63;5037472;28;20072;-87
2021/12/26 04:22:52;;;;;;;8.10;4.83;;;;;;;-10.41;100.00;100627.16;5020909;28;20509;-87
2021/12/26 04:25:20;;;;;;;8.43;5.67;;;;;;;-10.40;100.00;100628.03;5030710;28;20125;-87
2021/12/26 04:27:48;;;;;;;7.50;4.87;;;;;;;-10.34;100.00;100628.47;5033740;28;20158;-87
2021/12/26 04:30:18;;;;;;;10.37;5.70;;;;;;;-10.36;100.00;100623.31;5013016;28;20033;-86
2021/12/26 04:32:44;;;;;;;8.67;5.03;;;;;;;-10.44;100.00;100621.88;5029912;28;20052;-88
2021/12/26 04:35:11;;;;;;;12.17;5.37;;;;;;;-10.45;100.00;100620.09;5025389;28;20071;-86
2021/12/26 04:37:38;;;;;;;11.33;5.37;;;;;;;-10.47;100.00;100621.63;5049493;28;20063;-87
2021/12/26 04:40:11;;;;;;;8.53;6.07;;;;;;;-10.50;100.00;100626.47;5011202;28;20040;-87
2021/12/26 04:42:39;;;;;;;8.20;5.63;;;;;;;-10.55;100.00;100625.25;5020401;28;20050;-88
2021/12/26 04:45:08;;;;;;;9.90;5.37;;;;;;;-10.56;100.00;100623.47;5011921;28;20052;-87
2021/12/26 04:47:37;;;;;;;7.13;5.43;;;;;;;-10.56;100.00;100628.53;5023020;28;20186;-87
2021/12/26 04:50:10;;;;;;;11.00;6.23;;;;;;;-10.56;100.00;100620.94;5014048;28;20056;-87
2021/12/26 04:52:38;;;;;;;7.85;5.20;;;;;;;-10.59;100.00;100623.25;5032709;28;20221;-87
2021/12/26 04:55:05;;;;;;;5.60;4.37;;;;;;;-10.60;100.00;100616.44;5029782;28;20052;-87
2021/12/26 04:57:32;;;;;;;9.87;6.40;;;;;;;-10.62;100.00;100625.53;5027945;28;20363;-87
2021/12/26 05:00:00;;;;;;;12.43;5.17;;;;;;;-10.63;100.00;100618.75;5042804;28;20037;-86
2021/12/26 05:02:28;;;;;;;9.77;5.37;;;;;;;-10.59;100.00;100626.66;5015286;28;20053;-86
2021/12/26 05:04:55;;;;;;;7.50;5.60;;;;;;;-10.52;100.00;100633.97;5039321;28;20388;-87
2021/12/26 05:07:21;;;;;;;11.33;5.13;;;;;;;-10.48;100.00;100629.97;5029418;28;20044;-87
2021/12/26 05:09:48;;;;;;;7.10;5.17;;;;;;;-10.49;100.00;100630.78;5014137;28;20053;-87
2021/12/26 05:12:15;;;;;;;7.73;4.90;;;;;;;-10.55;100.00;100630.31;5026613;28;20045;-87
2021/12/26 05:14:41;;;;;;;8.63;5.57;;;;;;;-10.60;100.00;100622.34;5036167;28;20049;-86
2021/12/26 05:17:08;;;;;;;9.90;5.43;;;;;;;-10.64;100.00;100615.31;5028518;28;20493;-86
2021/12/26 05:19:34;;;;;;;9.27;5.43;;;;;;;-10.67;100.00;100618.50;5045505;28;20048;-87
2021/12/26 05:22:01;;;;;;;9.17;5.23;;;;;;;-10.71;100.00;100620.69;5036474;28;20139;-87
2021/12/26 05:24:27;;;;;;;12.00;5.87;;;;;;;-10.75;100.00;100619.56;5043677;28;20056;-86
2021/12/26 05:26:54;;;;;;;10.33;5.10;;;;;;;-10.78;100.00;100619.31;5049370;28;20048;-85
2021/12/26 05:29:21;;;;;;;7.87;4.73;;;;;;;-10.83;100.00;100616.47;5040442;28;20048;-87
2021/12/26 05:31:47;;;;;;;9.57;4.90;;;;;;;-10.86;100.00;100608.66;5030584;28;20056;-86
2021/12/26 05:34:17;;;;;;;6.83;5.50;;;;;;;-10.89;100.00;100598.28;5032696;28;20048;-87
2021/12/26 05:36:43;;;;;;;7.57;4.77;;;;;;;-10.87;100.00;100603.47;5032059;28;20160;-87
2021/12/26 05:39:10;;;;;;;6.00;4.50;;;;;;;-10.86;100.00;100592.59;5015454;28;20525;-87
2021/12/26 05:41:38;;;;;;;8.47;4.57;;;;;;;-10.83;100.00;100597.91;5041265;28;20032;-87
2021/12/26 05:44:08;;;;;;;7.00;5.03;;;;;;;-10.83;100.00;100591.19;5029571;28;20049;-86
2021/12/26 05:46:38;;;;;;;9.03;5.63;;;;;;;-10.82;100.00;100587.88;5023475;28;21262;-87
2021/12/26 05:49:05;;;;;;;12.60;5.23;;;;;;;-10.83;100.00;100592.84;5016976;28;20060;-86
2021/12/26 05:51:32;;;;;;;9.70;5.50;;;;;;;-10.77;100.00;100605.06;5031366;28;20082;-87
2021/12/26 05:53:59;;;;;;;9.03;5.60;;;;;;;-10.75;100.00;100600.97;5003483;28;20094;-86
2021/12/26 05:56:26;;;;;;;5.33;4.23;;;;;;;-10.77;100.00;100602.53;5029813;28;20120;-88
2021/12/26 05:58:52;;;;;;;9.50;4.63;;;;;;;-10.79;100.00;100604.03;5025814;28;20056;-87
2021/12/26 06:01:19;;;;;;;11.30;5.30;;;;;;;-10.75;100.00;100601.88;5016256;28;20041;-85
2021/12/26 06:03:45;;;;;;;6.57;4.80;;;;;;;-10.77;100.00;100608.44;5048070;28;20045;-87
2021/12/26 06:06:12;;;;;;;8.53;4.50;;;;;;;-10.79;100.00;100607.47;5028774;28;20140;-86
2021/12/26 06:08:38;;;;;;;9.97;5.77;;;;;;;-10.80;100.00;100605.69;5028305;28;20063;-87
2021/12/26 06:11:05;;;;;;;12.93;5.33;;;;;;;-10.83;100.00;100608.88;5041715;28;20413;-87
2021/12/26 06:13:32;;;;;;;7.77;5.03;;;;;;;-10.81;100.00;100612.41;5031239;28;20048;-88
2021/12/26 06:15:59;;;;;;;9.93;5.30;;;;;;;-10.78;100.00;100608.34;5015374;28;20055;-86
2021/12/26 06:18:26;;;;;;;7.87;4.83;;;;;;;-10.76;100.00;100609.34;5008370;28;20079;-88
2021/12/26 06:20:53;;;;;;;6.07;4.63;;;;;;;-10.77;100.00;100605.06;5019824;28;20163;-86
2021/12/26 06:23:20;;;;;;;9.97;6.27;;;;;;;-10.74;100.00;100612.84;5025388;28;20048;-87
2021/12/26 06:25:46;;;;;;;8.77;5.23;;;;;;;-10.71;100.00;100606.38;5012409;28;20040;-87
2021/12/26 06:28:13;;;;;;;10.00;5.23;;;;;;;-10.78;100.00;100611.72;5032603;28;20905;-87
2021/12/26 06:30:39;;;;;;;9.63;6.27;;;;;;;-10.78;100.00;100608.34;5024720;28;20049;-87
2021/12/26 06:33:06;;;;;;;10.57;5.47;;;;;;;-10.81;100.00;100601.41;5030489;28;20098;-86
2021/12/26 06:35:32;;;;;;;15.73;6.67;;;;;;;-10.84;100.00;100611.28;5010213;28;20044;-86
2021/12/26 06:37:59;;;;;;;18.47;5.30;;;;;;;-10.87;100.00;100611.03;5032389;28;20124;-86
2021/12/26 06:40:25;;;;;;;8.73;4.80;;;;;;;-10.86;100.00;100606.13;5013874;28;20599;-86
2021/12/26 06:42:52;;;;;;;10.93;5.83;;;;;;;-10.88;100.00;100592.47;5011931;28;20305;-87
2021/12/26 06:45:19;;;;;;;8.90;5.37;;;;;;;-10.84;100.00;100591.94;5016585;28;20040;-86
2021/12/26 06:47:50;;;;;;;8.13;5.77;;;;;;;-10.79;100.00;100591.41;5028951;28;20198;-86
2021/12/26 06:50:19;;;;;;;9.43;6.13;;;;;;;-10.81;100.00;100594.72;5033303;28;20518;-87
2021/12/26 06:52:46;;;;;;;9.77;5.77;;;;;;;-10.82;100.00;100594.56;5023283;28;20126;-87
2021/12/26 06:55:12;;;;;;;10.33;5.87;;;;;;;-10.84;100.00;100594.47;5013995;28;20056;-86
2021/12/26 06:57:40;;;;;;;9.17;4.97;;;;;;;-10.79;100.00;100596.44;5014014;28;20049;-87
2021/12/26 07:00:11;;;;;;;8.90;5.60;;;;;;;-10.81;100.00;100597.25;5039759;28;20055;-87
2021/12/26 07:02:38;;;;;;;10.53;6.20;;;;;;;-10.81;100.00;100593.81;5028241;28;20458;-86
2021/12/26 07:05:05;;;;;;;10.67;5.67;;;;;;;-10.81;100.00;100599.78;5017918;28;20045;-86
2021/12/26 07:07:32;;;;;;;12.23;5.30;;;;;;;-10.82;100.00;100597.09;5016680;28;20053;-86
2021/12/26 07:10:02;;;;;;;10.83;5.50;;;;;;;-10.81;100.00;100594.72;5017784;28;20059;-86
2021/12/26 07:12:29;;;;;;;13.17;6.83;;;;;;;-10.80;100.00;100593.06;5039575;28;20139;-87
2021/12/26 07:14:56;;;;;;;13.33;6.80;;;;;;;-10.82;100.00;100589.50;5054997;28;20134;-86
2021/12/26 07:17:22;;;;;;;13.93;6.33;;;;;;;-10.84;100.00;100594.47;5016131;28;20036;-87
2021/12/26 07:19:49;;;;;;;12.63;5.53;;;;;;;-10.86;100.00;100596.00;5023605;28;20048;-86
2021/12/26 07:22:15;;;;;;;12.67;5.93;;;;;;;-10.86;100.00;100596.00;5034954;28;20047;-87
2021/12/26 07:24:43;;;;;;;10.80;6.73;;;;;;;-10.87;100.00;100599.31;5042500;28;20044;-87
2021/12/26 07:27:15;;;;;;;8.60;5.33;;;;;;;-10.89;100.00;100600.81;5027979;28;20060;-88
2021/12/26 07:29:42;;;;;;;9.20;5.93;;;;;;;-10.89;100.00;100600.81;5037883;28;20036;-87
2021/12/26 07:32:10;;;;;;;11.03;6.93;;;;;;;-10.88;100.00;100606.78;5052639;28;20086;-87
2021/12/26 07:34:37;;;;;;;12.43;5.50;;;;;;;-10.87;100.00;100606.88;5033573;28;22093;-86
2021/12/26 07:37:05;;;;;;;8.50;5.73;;;;;;;-10.86;100.00;100605.22;5040727;28;20051;-86
2021/12/26 07:39:31;;;;;;;7.73;6.20;;;;;;;-10.87;100.00;100614.47;5023864;28;20125;-87
2021/12/26 07:41:58;;;;;;;12.20;6.07;;;;;;;-10.84;100.00;100622.28;5034159;28;20052;-87
2021/12/26 07:44:25;;;;;;;9.87;5.93;;;;;;;-10.87;100.00;100614.47;5032306;28;20056;-88
2021/12/26 07:46:52;;;;;;;10.70;5.57;;;;;;;-10.86;100.00;100627.97;5011273;28;20052;-87
2021/12/26 07:49:20;;;;;;;13.10;7.37;;;;;;;-10.82;100.00;100630.88;5049704;28;20048;-86
2021/12/26 07:51:48;;;;;;;13.10;6.00;;;;;;;-10.84;100.00;100629.88;5021944;28;20044;-87
2021/12/26 07:54:16;;;;;;;9.97;6.40;;;;;;;-10.87;100.00;100624.59;5048817;28;20963;-87
2021/12/26 07:56:43;;;;;;;16.70;7.27;;;;;;;-10.85;100.00;100617.97;5020814;28;20048;-87
2021/12/26 07:59:11;;;;;;;8.73;5.73;;;;;;;-10.82;100.00;100618.22;5030628;28;20048;-87
2021/12/26 08:01:38;;;;;;;9.63;5.97;;;;;;;-10.78;100.00;100618.44;5033075;28;20039;-87
2021/12/26 08:04:05;;;;;;;10.73;7.47;;;;;;;-10.81;100.00;100620.00;5034408;28;20048;-87
2021/12/26 08:06:33;;;;;;;12.63;6.20;;;;;;;-10.83;100.00;100621.53;5016247;28;20060;-87
2021/12/26 08:08:59;;;;;;;13.97;6.03;;;;;;;-10.83;100.00;100621.53;5018222;28;20526;-87
2021/12/26 08:11:26;;;;;;;12.67;7.37;;;;;;;-10.82;100.00;100623.28;5047214;28;20036;-86
2021/12/26 08:13:53;;;;;;;12.47;7.47;;;;;;;-10.79;100.00;100625.16;5036703;28;20040;-87
2021/12/26 08:16:19;;;;;;;11.17;6.23;;;;;;;-10.75;100.00;100613.63;5036718;28;20048;-86
2021/12/26 08:18:46;;;;;;;10.53;5.27;;;;;;;-10.69;100.00;100626.72;5029538;28;20131;-87
2021/12/26 08:21:13;;;;;;;10.40;6.87;;;;;;;-10.61;100.00;100617.19;5051379;28;20053;-86
2021/12/26 08:23:39;;;;;;;10.13;6.90;;;;;;;-10.60;100.00;100614.78;5044214;28;20037;-87
2021/12/26 08:26:06;;;;;;;9.07;5.83;;;;;;;-10.58;100.00;100613.25;5033112;28;20056;-87
2021/12/26 08:28:33;;;;;;;11.60;6.10;;;;;;;-10.53;100.00;100616.09;5027702;28;20568;-86
2021/12/26 08:31:00;;;;;;;12.57;6.93;;;;;;;-10.51;100.00;100612.06;5030650;28;20466;-87
2021/12/26 08:33:27;;;;;;;12.03;6.10;;;;;;;-10.47;100.00;100614.03;5033258;28;20052;-87
2021/12/26 08:35:54;;;;;;;12.20;5.63;;;;;;;-10.41;100.00;100611.09;5028386;28;20157;-86
2021/12/26 08:38:24;;;;;;;14.37;6.87;;;;;;;-10.41;100.00;100611.97;5017133;28;20044;-86
2021/12/26 08:40:57;;;;;;;9.52;5.13;;;;;;;-10.39;100.00;100615.50;5022123;28;20048;-86
2021/12/26 08:43:24;;;;;;;11.03;6.53;;;;;;;-10.34;100.00;100616.69;5019228;28;20149;-86
2021/12/26 08:45:52;;;;;;;10.87;5.80;;;;;;;-10.30;100.00;100610.19;5018078;28;20052;-86
2021/12/26 08:48:18;;;;;;;10.47;6.10;;;;;;;-10.26;100.00;100611.31;5041060;28;20040;-86
2021/12/26 08:50:46;;;;;;;10.60;5.67;;;;;;;-10.17;100.00;100609.44;5029997;28;20045;-86
2021/12/26 08:53:13;;;;;;;8.90;5.93;;;;;;;-10.15;100.00;100610.47;5045097;28;20044;-87
2021/12/26 08:55:40;;;;;;;12.87;6.27;;;;;;;-10.10;100.00;100604.06;5036029;28;20052;-86
2021/12/26 08:58:07;;;;;;;10.37;6.37;;;;;;;-10.05;100.00;100604.38;5055008;28;20513;-87
2021/12/26 09:00:36;;;;;;;9.63;5.57;;;;;;;-10.05;100.00;100592.63;5048401;28;20080;-85
2021/12/26 09:03:04;;;;;;;16.70;7.83;;;;;;;-9.99;100.00;100600.66;5055100;28;20133;-85
2021/12/26 09:05:30;;;;;;;11.20;6.53;;;;;;;-9.95;100.00;100598.34;5050557;28;20525;-86
2021/12/26 09:07:57;;;;;;;9.57;6.47;;;;;;;-9.94;100.00;100593.41;5040676;28;20110;-86
2021/12/26 09:10:24;;;;;;;12.13;7.10;;;;;;;-9.86;100.00;100591.41;5043907;28;20864;-87
2021/12/26 09:12:50;;;;;;;10.50;6.00;;;;;;;-9.83;100.00;100601.75;5018449;28;20495;-86
2021/12/26 09:15:17;;;;;;;13.40;6.97;;;;;;;-9.82;100.00;100599.31;5038639;28;20068;-87
2021/12/26 09:17:44;;;;;;;11.47;7.17;;;;;;;-9.78;100.00;100592.84;5038031;28;20058;-87
2021/12/26 09:20:11;;;;;;;16.00;6.80;;;;;;;-9.69;100.00;100598.56;5038871;28;20057;-85
2021/12/26 09:22:40;;;;;;;12.63;6.90;;;;;;;-9.62;100.00;100592.25;5036481;28;20037;-86
2021/12/26 09:25:07;;;;;;;12.77;7.50;;;;;;;-9.57;100.00;100590.06;5034600;28;20548;-86
2021/12/26 09:27:34;;;;;;;14.43;7.30;;;;;;;-9.50;100.00;100597.34;5041138;28;20044;-86
2021/12/26 09:30:01;;;;;;;19.30;8.03;;;;;;;-9.45;100.00;100602.72;5036880;28;20056;-86
2021/12/26 09:32:28;;;;;;;11.57;7.17;;;;;;;-9.40;100.00;100599.72;5015077;28;20052;-86
2021/12/26 09:34:54;;;;;;;14.50;7.17;;;;;;;-9.35;100.00;100606.00;5050154;28;20075;-86
2021/12/26 09:37:21;;;;;;;14.50;7.57;;;;;;;-9.34;100.00;100599.28;5037053;28;20049;-87
2021/12/26 09:39:48;;;;;;;13.00;7.43;;;;;;;-9.31;100.00;100607.09;5038665;28;20076;-87
2021/12/26 09:42:15;;;;;;;14.17;7.13;;;;;;;-9.24;100.00;100598.25;5034606;28;20152;-86
2021/12/26 09:44:42;;;;;;;10.87;7.63;;;;;;;-9.18;100.00;100599.56;5018008;28;20053;-85
2021/12/26 09:47:09;;;;;;;10.47;6.20;;;;;;;-9.12;100.00;100593.16;5033571;28;20043;-86
2021/12/26 09:49:37;;;;;;;12.73;6.43;;;;;;;-9.06;100.00;100599.56;5036999;28;20053;-86
2021/12/26 09:52:06;;;;;;;15.67;7.10;;;;;;;-9.00;100.00;100594.88;5024538;28;20119;-85
2021/12/26 09:54:33;;;;;;;11.87;7.17;;;;;;;-8.96;100.00;100593.44;5027569;28;20044;-86
2021/12/26 09:57:01;;;;;;;15.03;7.27;;;;;;;-8.88;100.00;100596.50;5040105;28;20048;-87
2021/12/26 09:59:30;;;;;;;11.90;6.73;;;;;;;-8.78;100.00;100588.75;5036164;28;20171;-86
2021/12/26 10:02:00;;;;;;;11.40;7.63;;;;;;;-8.75;100.00;100581.31;5024363;28;20047;-87
2021/12/26 10:04:36;;;;;;;12.63;7.47;;;;;;;-8.66;100.00;100583.59;5050695;28;20032;-86
2021/12/26 10:07:17;;;;;;;13.50;6.87;;;;;;;-8.58;99.37;100589.19;5035546;28;20084;-85
2021/12/26 10:09:48;;;;;;;13.40;7.70;;;;;;;-8.51;98.39;100586.31;5035860;28;20049;-87
2021/12/26 10:12:19;;;;;;;11.90;7.30;;;;;;;-8.45;97.85;100578.19;5028025;28;20052;-86
2021/12/26 10:14:51;;;;;;;16.23;8.30;;;;;;;-8.39;98.13;100581.13;5019674;28;20427;-86
2021/12/26 10:17:26;;;;;;;15.03;7.13;;;;;;;-8.34;97.27;100572.16;5017249;28;20460;-86
2021/12/26 10:20:00;;;;;;;12.67;8.60;;;;;;;-8.29;97.79;100567.34;5036766;28;20044;-86
2021/12/26 10:22:29;;;;;;;17.60;7.37;;;;;;;-8.21;97.50;100568.72;5038000;28;20384;-86
2021/12/26 10:24:58;;;;;;;15.50;7.90;;;;;;;-8.14;97.26;100568.34;5032751;28;20748;-85
2021/12/26 10:27:31;;;;;;;17.20;8.90;;;;;;;-8.08;97.04;100565.31;5041890;28;20048;-86
2021/12/26 10:30:00;;;;;;;;;;;;;;;-8.02;96.68;100574.19;5018464;28;20138;-86
2021/12/26 10:32:33;;;;;;;18.20;9.23;;;;;;;-7.94;96.35;100574.69;5051530;28;19960;-86
2021/12/26 10:35:14;;;;;;;13.70;8.43;;;;;;;-7.86;95.62;100567.56;5038552;28;20096;-85
2021/12/26 10:37:52;;;;;;;15.03;7.23;;;;;;;-7.79;95.50;100569.72;5053338;28;20051;-85
2021/12/26 10:40:31;;;;;;;14.23;7.00;;;;;;;-7.71;93.20;100563.47;5020783;28;20064;-86
2021/12/26 10:43:00;;;;;;;16.40;8.10;;;;;;;-7.61;91.61;100559.84;5022302;28;20056;-85
2021/12/26 10:45:32;;;;;;;22.80;9.83;;;;;;;-7.56;91.44;100567.75;5031637;28;20044;-86
2021/12/26 10:48:07;;;;;;;15.90;7.87;;;;;;;-7.50;91.27;100556.28;5013496;28;20074;-86
2021/12/26 10:50:40;;;;;;;16.50;7.57;;;;;;;-7.45;92.11;100556.59;5018503;28;21010;-86
2021/12/26 10:53:15;;;;;;;15.53;8.47;;;;;;;-7.40;91.72;100564.50;5037281;28;20498;-85
2021/12/26 10:55:51;;;;;;;18.90;8.30;;;;;;;-7.37;92.21;100568.09;5031623;28;20052;-86
2021/12/26 10:58:23;;;;;;;18.07;8.50;;;;;;;-7.32;92.14;100558.22;5049591;28;20090;-86
2021/12/26 11:00:59;;;;;;;15.00;8.27;;;;;;;-7.24;91.14;100568.88;5027601;28;20045;-85
2021/12/26 11:03:31;;;;;;;18.60;9.23;;;;;;;-7.16;89.79;100554.94;5020423;28;20051;-86
2021/12/26 11:06:06;;;;;;;23.10;10.13;;;;;;;-7.12;91.12;100554.31;5030214;28;20052;-86
2021/12/26 11:08:42;;;;;;;18.80;9.33;;;;;;;-7.03;88.88;100549.78;5021571;28;20040;-86
2021/12/26 11:11:20;;;;;;;15.07;8.67;;;;;;;-6.95;88.50;100554.47;5017404;28;20055;-86
2021/12/26 11:13:50;;;;;;;15.90;8.40;;;;;;;-6.94;89.35;100553.69;5051973;28;20569;-86
2021/12/26 11:16:19;;;;;;;17.53;9.50;;;;;;;-6.92;90.10;100549.56;5034230;28;21695;-86
2021/12/26 11:18:55;;;;;;;19.13;9.53;;;;;;;-6.86;89.04;100553.34;5011994;28;20107;-86